createdAt,value
2023-06-13T00:01:05.479Z,14.0
2023-06-13T00:04:05.293Z,13.9
2023-06-13T00:07:05.015Z,13.7
2023-06-13T00:10:07.010Z,13.5
2023-06-13T00:13:04.956Z,13.4
2023-06-13T00:16:04.982Z,13.4
2023-06-13T00:19:05.347Z,13.2
2023-06-13T00:22:05.014Z,13.2
2023-06-13T00:25:05.064Z,13.2
2023-06-13T00:28:05.009Z,13.2
2023-06-13T00:31:05.396Z,13.1
2023-06-13T00:34:05.096Z,13.2
2023-06-13T00:37:05.048Z,13.0
2023-06-13T00:40:05.008Z,13.0
2023-06-13T00:43:05.012Z,12.8
2023-06-13T00:46:04.962Z,12.7
2023-06-13T00:49:05.112Z,12.6
2023-06-13T00:52:04.947Z,12.5
2023-06-13T00:55:04.926Z,12.4
2023-06-13T00:58:04.973Z,12.4
2023-06-13T01:01:05.303Z,12.3
2023-06-13T01:04:05.315Z,12.2
2023-06-13T01:07:04.964Z,12.2
2023-06-13T01:10:04.958Z,12.2
2023-06-13T01:13:05.037Z,12.1
2023-06-13T01:16:05.102Z,12.1
2023-06-13T01:19:04.941Z,12.0
2023-06-13T01:22:04.938Z,12.2
2023-06-13T01:25:05.067Z,12.3
2023-06-13T01:28:04.946Z,12.1
2023-06-13T01:31:05.409Z,12.1
2023-06-13T01:34:04.972Z,12.0
2023-06-13T01:37:04.985Z,12.1
2023-06-13T01:40:04.959Z,12.1
2023-06-13T01:43:05.284Z,12.1
2023-06-13T01:46:04.977Z,12.3
2023-06-13T01:49:04.976Z,12.4
2023-06-13T01:52:04.885Z,12.5
2023-06-13T01:55:04.948Z,12.6
2023-06-13T01:58:04.931Z,12.7
2023-06-13T02:01:05.295Z,12.8
2023-06-13T02:04:05.284Z,12.8
2023-06-13T02:07:04.898Z,12.7
2023-06-13T02:10:04.944Z,12.5
2023-06-13T02:13:04.985Z,12.4
2023-06-13T02:16:05.002Z,12.4
2023-06-13T02:19:05.238Z,12.4
2023-06-13T02:22:04.978Z,12.5
2023-06-13T02:25:04.971Z,12.5
2023-06-13T02:28:04.981Z,12.4
2023-06-13T02:31:05.200Z,12.3
2023-06-13T02:34:05.014Z,12.4
2023-06-13T02:37:04.955Z,12.4
2023-06-13T02:40:04.992Z,12.3
2023-06-13T02:43:05.025Z,12.2
2023-06-13T02:46:04.984Z,12.2
2023-06-13T02:49:05.645Z,12.2
2023-06-13T02:52:04.954Z,12.0
2023-06-13T02:55:04.935Z,11.8
2023-06-13T02:58:04.963Z,11.9
2023-06-13T03:01:05.473Z,11.8
2023-06-13T03:04:05.541Z,11.8
2023-06-13T03:07:07.737Z,11.7
2023-06-13T03:10:05.813Z,11.6
2023-06-13T03:13:04.868Z,11.5
2023-06-13T03:16:05.009Z,11.3
2023-06-13T03:19:05.030Z,11.2
2023-06-13T03:22:06.345Z,11.2
2023-06-13T03:25:05.143Z,11.1
2023-06-13T03:28:04.953Z,11.5
2023-06-13T03:31:05.353Z,11.7
2023-06-13T03:34:04.961Z,11.5
2023-06-13T03:37:04.917Z,11.3
2023-06-13T03:40:04.930Z,11.2
2023-06-13T03:43:04.957Z,11.2
2023-06-13T03:46:05.172Z,11.2
2023-06-13T03:49:06.235Z,11.0
2023-06-13T03:52:04.955Z,11.0
2023-06-13T03:55:05.927Z,11.0
2023-06-13T03:58:05.012Z,11.0
2023-06-13T04:01:07.699Z,11.0
2023-06-13T04:04:05.616Z,11.0
2023-06-13T04:07:13.235Z,11.2
2023-06-13T04:10:06.190Z,11.4
2023-06-13T04:13:04.974Z,11.6
2023-06-13T04:16:04.966Z,11.6
2023-06-13T04:19:05.105Z,11.6
2023-06-13T04:22:05.009Z,11.4
2023-06-13T04:25:05.089Z,11.3
2023-06-13T04:28:04.979Z,11.2
2023-06-13T04:31:05.429Z,11.3
2023-06-13T04:34:05.591Z,11.2
2023-06-13T04:37:04.904Z,11.3
2023-06-13T04:40:04.923Z,11.3
2023-06-13T04:43:05.510Z,11.4
2023-06-13T04:46:07.266Z,11.5
2023-06-13T04:49:05.256Z,11.6
2023-06-13T04:52:05.506Z,11.8
2023-06-13T04:55:05.000Z,11.9
2023-06-13T04:58:04.976Z,12.2
2023-06-13T05:01:05.495Z,12.4
2023-06-13T05:04:05.358Z,12.2
2023-06-13T05:07:05.034Z,12.0
2023-06-13T05:10:04.906Z,11.9
2023-06-13T05:13:05.329Z,11.9
2023-06-13T05:16:05.182Z,11.9
2023-06-13T05:19:06.103Z,12.1
2023-06-13T05:22:04.974Z,12.2
2023-06-13T05:25:05.172Z,12.2
2023-06-13T05:28:04.924Z,12.4
2023-06-13T05:31:05.580Z,12.6
2023-06-13T05:34:05.071Z,12.6
2023-06-13T05:37:04.954Z,12.8
2023-06-13T05:40:04.934Z,12.8
2023-06-13T05:43:04.993Z,13.0
2023-06-13T05:46:05.045Z,12.9
2023-06-13T05:49:05.206Z,13.0
2023-06-13T05:52:04.988Z,13.3
2023-06-13T05:55:04.962Z,13.4
2023-06-13T05:58:04.963Z,13.7
2023-06-13T06:01:09.706Z,14.1
2023-06-13T06:04:06.080Z,14.1
2023-06-13T06:07:09.131Z,13.8
2023-06-13T06:10:04.948Z,13.6
2023-06-13T06:13:04.992Z,13.5
2023-06-13T06:16:04.973Z,13.6
2023-06-13T06:19:05.606Z,13.7
2023-06-13T06:22:05.101Z,13.8
2023-06-13T06:25:05.226Z,14.1
2023-06-13T06:28:05.278Z,14.3
2023-06-13T06:31:05.413Z,14.6
2023-06-13T06:34:05.157Z,14.9
2023-06-13T06:37:04.970Z,14.9
2023-06-13T06:40:05.004Z,14.8
2023-06-13T06:43:04.931Z,14.8
2023-06-13T06:46:05.714Z,14.7
2023-06-13T06:49:05.027Z,14.7
2023-06-13T06:52:04.990Z,14.9
2023-06-13T06:55:04.923Z,15.0
2023-06-13T06:58:04.867Z,15.1
2023-06-13T07:01:05.665Z,15.2
2023-06-13T07:04:05.397Z,15.2
2023-06-13T07:07:04.927Z,14.9
2023-06-13T07:10:04.932Z,14.8
2023-06-13T07:13:04.980Z,14.6
2023-06-13T07:16:04.999Z,14.4
2023-06-13T07:19:05.046Z,14.4
2023-06-13T07:22:06.310Z,14.4
2023-06-13T07:25:12.510Z,14.2
2023-06-13T07:28:04.881Z,14.3
2023-06-13T07:31:05.373Z,14.3
2023-06-13T07:34:09.831Z,14.5
2023-06-13T07:37:04.877Z,14.6
2023-06-13T07:40:05.731Z,14.3
2023-06-13T07:43:05.087Z,14.3
2023-06-13T07:46:05.145Z,14.3
2023-06-13T07:49:05.187Z,14.5
2023-06-13T07:52:04.990Z,14.7
2023-06-13T07:55:04.960Z,14.8
2023-06-13T07:58:25.837Z,15.1
2023-06-13T08:01:05.351Z,15.2
2023-06-13T08:04:06.084Z,15.4
2023-06-13T08:07:04.939Z,15.5
2023-06-13T08:10:05.348Z,15.5
2023-06-13T08:13:05.033Z,15.8
2023-06-13T08:16:05.029Z,15.7
2023-06-13T08:19:05.168Z,15.3
2023-06-13T08:22:05.042Z,15.3
2023-06-13T08:25:05.091Z,15.2
2023-06-13T08:28:05.082Z,14.9
2023-06-13T08:31:20.277Z,14.5
2023-06-13T08:34:16.821Z,14.6
2023-06-13T08:37:14.883Z,14.6
2023-06-13T08:40:05.101Z,14.8
2023-06-13T08:43:05.080Z,14.5
2023-06-13T08:46:06.554Z,14.3
2023-06-13T08:49:05.587Z,14.2
2023-06-13T08:52:05.052Z,14.1
2023-06-13T08:55:31.868Z,14.4
2023-06-13T08:58:05.014Z,14.6
2023-06-13T09:01:05.157Z,14.9
2023-06-13T09:04:05.765Z,15.0
2023-06-13T09:07:05.030Z,15.0
2023-06-13T09:10:05.081Z,14.8
2023-06-13T09:13:05.255Z,14.8
2023-06-13T09:16:05.541Z,15.0
2023-06-13T09:19:05.355Z,15.2
2023-06-13T09:22:07.065Z,15.5
2023-06-13T09:25:05.176Z,15.4
2023-06-13T09:28:05.136Z,15.4
2023-06-13T09:31:05.642Z,15.4
2023-06-13T09:34:05.077Z,15.3
2023-06-13T09:37:08.407Z,15.2
2023-06-13T09:40:14.089Z,15.4
2023-06-13T09:43:17.324Z,15.3
2023-06-13T09:46:05.370Z,15.3
2023-06-13T09:49:08.068Z,15.4
2023-06-13T09:52:05.004Z,15.2
2023-06-13T09:55:07.787Z,15.4
2023-06-13T09:58:32.223Z,15.5
2023-06-13T10:01:05.420Z,15.4
2023-06-13T10:04:15.233Z,15.3
2023-06-13T10:07:05.148Z,15.5
2023-06-13T10:10:04.978Z,15.5
2023-06-13T10:13:05.158Z,15.4
2023-06-13T10:16:05.548Z,15.4
2023-06-13T10:19:05.208Z,15.6
2023-06-13T10:22:14.876Z,15.7
2023-06-13T10:25:05.168Z,15.4
2023-06-13T10:28:08.056Z,15.1
2023-06-13T10:31:05.349Z,15.3
2023-06-13T10:34:05.005Z,15.2
2023-06-13T10:37:07.110Z,15.3
2023-06-13T10:40:05.020Z,15.5
2023-06-13T10:43:05.045Z,15.6
2023-06-13T10:46:05.176Z,15.8
2023-06-13T10:49:05.058Z,16.0
2023-06-13T10:52:05.009Z,15.9
2023-06-13T10:55:05.034Z,16.2
2023-06-13T10:58:04.990Z,16.0
2023-06-13T11:01:06.810Z,15.4
2023-06-13T11:04:05.296Z,15.6
2023-06-13T11:07:05.018Z,15.9
2023-06-13T11:10:05.083Z,16.1
2023-06-13T11:13:05.593Z,16.5
2023-06-13T11:16:05.470Z,16.5
2023-06-13T11:19:05.114Z,16.4
2023-06-13T11:22:05.092Z,16.6
2023-06-13T11:25:08.725Z,16.8
2023-06-13T11:28:04.992Z,16.9
2023-06-13T11:31:07.013Z,16.4
2023-06-13T11:34:05.147Z,16.2
2023-06-13T11:37:06.740Z,16.0
2023-06-13T11:40:20.250Z,16.0
2023-06-13T11:43:05.101Z,15.9
2023-06-13T11:46:05.191Z,15.8
2023-06-13T11:49:15.396Z,15.8
2023-06-13T11:52:05.072Z,15.4
2023-06-13T11:55:05.195Z,15.4
2023-06-13T11:58:05.096Z,15.4
2023-06-13T12:01:06.077Z,15.4
2023-06-13T12:04:05.905Z,15.5
2023-06-13T12:07:05.066Z,15.6
2023-06-13T12:10:05.094Z,15.4
2023-06-13T12:13:05.031Z,15.3
2023-06-13T12:16:05.548Z,15.7
2023-06-13T12:19:05.281Z,16.3
2023-06-13T12:22:05.054Z,16.7
2023-06-13T12:25:05.387Z,16.2
2023-06-13T12:28:05.025Z,16.4
2023-06-13T12:31:05.086Z,16.6
2023-06-13T12:34:05.131Z,16.5
2023-06-13T12:37:05.103Z,16.8
2023-06-13T12:40:05.088Z,17.0
2023-06-13T12:43:05.019Z,17.0
2023-06-13T12:46:05.507Z,16.5
2023-06-13T12:49:05.278Z,16.5
2023-06-13T12:52:06.519Z,16.4
2023-06-13T12:55:05.144Z,16.2
2023-06-13T12:58:05.269Z,16.2
2023-06-13T13:01:05.748Z,16.3
2023-06-13T13:04:05.852Z,16.5
2023-06-13T13:07:05.151Z,16.6
2023-06-13T13:10:05.141Z,16.4
2023-06-13T13:13:05.228Z,16.5
2023-06-13T13:16:07.251Z,16.8
2023-06-13T13:19:05.061Z,17.0
2023-06-13T13:22:04.972Z,17.1
2023-06-13T13:25:08.474Z,16.8
2023-06-13T13:28:05.083Z,16.7
2023-06-13T13:31:16.330Z,16.8
2023-06-13T13:34:14.445Z,16.8
2023-06-13T13:37:04.986Z,16.7
2023-06-13T13:40:05.098Z,16.8
2023-06-13T13:43:14.787Z,16.8
2023-06-13T13:46:05.340Z,16.9
2023-06-13T13:49:06.028Z,16.7
2023-06-13T13:52:05.091Z,16.4
2023-06-13T13:55:05.108Z,16.3
2023-06-13T13:58:05.600Z,16.2
2023-06-13T14:01:05.158Z,16.0
2023-06-13T14:04:05.951Z,16.0
2023-06-13T14:07:05.070Z,15.9
2023-06-13T14:10:07.132Z,16.3
2023-06-13T14:13:05.030Z,16.8
2023-06-13T14:16:05.651Z,17.2
2023-06-13T14:19:05.683Z,17.3
2023-06-13T14:22:06.134Z,17.2
2023-06-13T14:25:05.307Z,16.9
2023-06-13T14:28:05.037Z,16.8
2023-06-13T14:31:15.028Z,16.9
2023-06-13T14:34:07.796Z,16.9
2023-06-13T14:37:05.054Z,16.9
2023-06-13T14:40:05.334Z,16.8
2023-06-13T14:43:05.187Z,16.9
2023-06-13T14:46:05.415Z,16.9
2023-06-13T14:49:05.359Z,16.5
2023-06-13T14:52:05.102Z,16.4
2023-06-13T14:55:04.993Z,16.5
2023-06-13T14:58:05.129Z,16.4
2023-06-13T15:01:05.274Z,16.4
2023-06-13T15:04:06.030Z,16.5
2023-06-13T15:07:05.046Z,16.4
2023-06-13T15:10:05.811Z,16.5
2023-06-13T15:13:05.052Z,16.6
2023-06-13T15:16:05.220Z,16.9
2023-06-13T15:19:05.004Z,17.1
2023-06-13T15:22:05.013Z,17.0
2023-06-13T15:25:05.249Z,16.9
2023-06-13T15:28:05.153Z,16.9
2023-06-13T15:31:05.512Z,16.8
2023-06-13T15:34:05.099Z,16.6
2023-06-13T15:37:05.069Z,16.6
2023-06-13T15:40:05.049Z,16.8
2023-06-13T15:43:04.981Z,17.1
2023-06-13T15:46:05.028Z,17.4
2023-06-13T15:49:05.229Z,17.5
2023-06-13T15:52:05.124Z,17.8
2023-06-13T15:55:05.832Z,18.1
2023-06-13T15:58:05.846Z,18.4
2023-06-13T16:01:05.922Z,18.6
2023-06-13T16:04:05.637Z,18.8
2023-06-13T16:07:05.055Z,18.6
2023-06-13T16:10:05.025Z,18.5
2023-06-13T16:13:07.302Z,18.2
2023-06-13T16:16:05.329Z,17.6
2023-06-13T16:19:05.734Z,17.3
2023-06-13T16:22:05.957Z,17.2
2023-06-13T16:25:05.159Z,17.1
2023-06-13T16:28:05.286Z,17.1
2023-06-13T16:31:05.160Z,16.9
2023-06-13T16:34:05.503Z,17.1
2023-06-13T16:37:05.007Z,17.0
2023-06-13T16:40:05.061Z,17.4
2023-06-13T16:43:05.179Z,17.8
2023-06-13T16:46:05.280Z,18.1
2023-06-13T16:49:05.098Z,17.9
2023-06-13T16:52:05.009Z,17.9
2023-06-13T16:55:05.029Z,18.0
2023-06-13T16:58:05.099Z,18.1
2023-06-13T17:01:05.088Z,17.9
2023-06-13T17:04:05.657Z,17.9
2023-06-13T17:07:05.029Z,17.8
2023-06-13T17:10:05.031Z,17.4
2023-06-13T17:13:04.984Z,17.2
2023-06-13T17:16:05.536Z,17.1
2023-06-13T17:19:05.133Z,16.9
2023-06-13T17:22:05.010Z,16.8
2023-06-13T17:25:05.247Z,16.7
2023-06-13T17:28:06.899Z,16.5
2023-06-13T17:31:05.036Z,16.4
2023-06-13T17:34:15.058Z,16.2
2023-06-13T17:37:05.054Z,16.1
2023-06-13T17:40:05.014Z,16.2
2023-06-13T17:43:04.983Z,16.1
2023-06-13T17:46:05.486Z,16.1
2023-06-13T17:49:05.297Z,16.2
2023-06-13T17:52:05.003Z,16.2
2023-06-13T17:55:05.019Z,16.3
2023-06-13T17:58:05.106Z,16.6
2023-06-13T18:01:05.169Z,16.3
2023-06-13T18:04:05.347Z,16.3
2023-06-13T18:07:04.988Z,16.3
2023-06-13T18:10:05.022Z,16.3
2023-06-13T18:13:15.041Z,16.2
2023-06-13T18:16:05.286Z,15.8
2023-06-13T18:19:05.067Z,15.9
2023-06-13T18:22:05.008Z,15.9
2023-06-13T18:25:05.359Z,15.7
2023-06-13T18:28:06.592Z,15.6
2023-06-13T18:31:05.012Z,15.5
2023-06-13T18:34:05.347Z,15.6
2023-06-13T18:37:05.016Z,15.7
2023-06-13T18:40:05.145Z,15.9
2023-06-13T18:43:05.002Z,16.1
2023-06-13T18:46:05.883Z,16.2
2023-06-13T18:49:05.078Z,16.2
2023-06-13T18:52:05.086Z,16.4
2023-06-13T18:55:05.012Z,16.5
2023-06-13T18:58:05.016Z,16.7
2023-06-13T19:01:05.253Z,17.0
2023-06-13T19:04:05.393Z,17.1
2023-06-13T19:07:05.000Z,17.0
2023-06-13T19:10:05.044Z,16.8
2023-06-13T19:13:05.212Z,16.6
2023-06-13T19:16:05.249Z,16.4
2023-06-13T19:19:05.369Z,16.2
2023-06-13T19:22:05.019Z,16.1
2023-06-13T19:25:06.818Z,16.1
2023-06-13T19:31:05.418Z,15.9
2023-06-13T19:34:05.010Z,15.9
2023-06-13T19:37:05.097Z,15.9
2023-06-13T19:40:05.100Z,16.0
2023-06-13T19:43:04.986Z,16.0
2023-06-13T19:46:05.155Z,15.9
2023-06-13T19:49:05.482Z,15.7
2023-06-13T19:52:15.525Z,15.5
2023-06-13T19:55:05.552Z,15.8
2023-06-13T19:58:05.121Z,16.2
2023-06-13T20:01:05.162Z,16.3
2023-06-13T20:04:05.257Z,16.2
2023-06-13T20:07:05.392Z,16.2
2023-06-13T20:10:05.070Z,16.1
2023-06-13T20:13:05.040Z,15.9
2023-06-13T20:16:05.182Z,15.5
2023-06-13T20:19:05.127Z,15.5
2023-06-13T20:22:05.116Z,15.4
2023-06-13T20:25:05.328Z,15.6
2023-06-13T20:28:05.061Z,15.8
2023-06-13T20:31:05.138Z,15.9
2023-06-13T20:34:05.121Z,16.1
2023-06-13T20:37:05.024Z,16.1
2023-06-13T20:40:05.065Z,16.1
2023-06-13T20:43:05.236Z,16.2
2023-06-13T20:46:05.619Z,16.1
2023-06-13T20:49:05.065Z,16.1
2023-06-13T20:52:08.276Z,16.1
2023-06-13T20:55:06.839Z,16.0
2023-06-13T20:58:05.758Z,15.7
2023-06-13T21:01:05.396Z,15.4
2023-06-13T21:04:05.288Z,15.4
2023-06-13T21:07:05.202Z,15.4
2023-06-13T21:10:05.121Z,15.4
2023-06-13T21:13:05.115Z,15.3
2023-06-13T21:16:05.081Z,15.1
2023-06-13T21:19:05.073Z,15.0
2023-06-13T21:22:05.042Z,14.8
2023-06-13T21:25:05.245Z,14.5
2023-06-13T21:28:05.063Z,14.3
2023-06-13T21:31:06.105Z,14.2
2023-06-13T21:34:05.119Z,14.2
2023-06-13T21:37:05.032Z,14.1
2023-06-13T21:40:05.267Z,14.0
2023-06-13T21:43:05.021Z,14.0
2023-06-13T21:46:14.932Z,14.1
2023-06-13T21:49:05.500Z,14.2
2023-06-13T21:52:05.059Z,14.2
2023-06-13T21:55:05.235Z,14.5
2023-06-13T21:58:05.049Z,14.6
2023-06-13T22:01:06.569Z,14.9
2023-06-13T22:04:05.441Z,14.9
2023-06-13T22:07:05.224Z,14.9
2023-06-13T22:10:05.115Z,14.8
2023-06-13T22:13:05.066Z,14.9
2023-06-13T22:16:05.078Z,14.8
2023-06-13T22:19:05.162Z,14.5
2023-06-13T22:22:05.036Z,14.6
2023-06-13T22:25:05.340Z,14.6
2023-06-13T22:28:05.136Z,14.8
2023-06-13T22:31:05.597Z,14.6
2023-06-13T22:34:05.180Z,14.2
2023-06-13T22:37:05.065Z,14.0
2023-06-13T22:40:05.111Z,13.9
2023-06-13T22:43:06.773Z,13.6
2023-06-13T22:46:05.176Z,13.5
2023-06-13T22:49:05.274Z,13.4
2023-06-13T22:52:05.153Z,13.3
2023-06-13T22:55:05.148Z,13.4
2023-06-13T22:58:05.156Z,13.3
2023-06-13T23:01:05.246Z,13.3
2023-06-13T23:04:05.347Z,13.2
2023-06-13T23:07:05.048Z,13.2
2023-06-13T23:10:05.141Z,13.2
2023-06-13T23:13:05.100Z,13.2
2023-06-13T23:16:05.195Z,13.3
2023-06-13T23:19:05.103Z,13.2
2023-06-13T23:22:05.142Z,13.0
2023-06-13T23:25:05.259Z,12.9
2023-06-13T23:28:05.194Z,12.9
2023-06-13T23:31:05.483Z,13.1
2023-06-13T23:34:05.092Z,13.5
2023-06-13T23:37:05.063Z,13.8
2023-06-13T23:40:16.428Z,13.7
2023-06-13T23:43:05.097Z,13.6
2023-06-13T23:46:05.138Z,13.3
2023-06-13T23:49:05.304Z,13.0
2023-06-13T23:52:05.042Z,12.8
2023-06-13T23:55:05.114Z,12.8
2023-06-13T23:58:05.152Z,12.5
